Time;durP1;ratioP1;P1;durP2;ratioP2;P2;SDS_P1;SDS_P2;PMS_P1;PMS_P2;Temp;Humidity;BMP_temperature;BMP_pressure;BME280_temperature;BME280_humidity;BME280_pressure;Samples;Min_cycle;Max_cycle;Signal;HPM_P1;HPM_P2
2022/07/30 00:00:38;;;;;;;;;;;21.30;67.00;;;;;;5023658;28;19920;-67
2022/07/30 00:03:04;;;;;;;;;;;21.30;67.10;;;;;;5022843;28;19924;-67
2022/07/30 00:05:29;;;;;;;;;;;21.30;67.10;;;;;;5037509;28;19917;-67
2022/07/30 00:07:55;;;;;;;;;;;21.30;67.20;;;;;;5040820;28;19965;-67
2022/07/30 00:10:21;;;;;;;;;;;21.20;67.20;;;;;;5020627;28;19913;-67
2022/07/30 00:12:47;;;;;;;;;;;21.20;67.20;;;;;;5040637;28;19916;-67
2022/07/30 00:15:13;;;;;;;;;;;21.20;67.30;;;;;;5041176;28;20528;-67
2022/07/30 00:17:38;;;;;;;;;;;21.20;67.40;;;;;;5028516;28;19916;-67
2022/07/30 00:20:04;;;;;;;;;;;21.10;67.20;;;;;;5023556;28;19913;-67
2022/07/30 00:22:30;;;;;;;;;;;21.10;67.40;;;;;;5023323;28;19924;-67
2022/07/30 00:24:55;;;;;;;;;;;21.10;67.40;;;;;;5023164;28;19913;-67
2022/07/30 00:27:21;;;;;;;;;;;21.00;68.10;;;;;;5022200;28;19952;-67
2022/07/30 00:29:46;;;;;;;;;;;21.00;67.40;;;;;;5022689;28;19913;-67
2022/07/30 00:32:12;;;;;;;;;;;21.00;67.50;;;;;;5024540;28;19920;-67
2022/07/30 00:34:37;;;;;;;;;;;21.00;67.40;;;;;;5022773;28;19912;-67
2022/07/30 00:37:03;;;;;;;;;;;20.90;67.50;;;;;;5022161;28;19963;-67
2022/07/30 00:39:29;;;;;;;;;;;20.90;67.40;;;;;;5030037;28;19917;-67
2022/07/30 00:41:58;;;;;;;;;;;20.90;67.50;;;;;;5022788;28;19997;-67
2022/07/30 00:44:24;;;;;;;;;;;20.90;67.60;;;;;;4960434;28;1786161;-67
2022/07/30 00:46:50;;;;;;;;;;;20.90;67.70;;;;;;5023138;28;20261;-67
2022/07/30 00:49:16;;;;;;;;;;;20.80;67.60;;;;;;5023769;28;20559;-67
2022/07/30 00:51:41;;;;;;;;;;;20.80;67.80;;;;;;5023521;28;20312;-67
2022/07/30 00:54:06;;;;;;;;;;;20.80;67.90;;;;;;5036749;28;19913;-67
2022/07/30 00:56:32;;;;;;;;;;;20.70;67.70;;;;;;5041319;28;19916;-67
2022/07/30 00:58:58;;;;;;;;;;;20.70;67.70;;;;;;5041254;28;19920;-67
2022/07/30 01:01:23;;;;;;;;;;;20.70;68.10;;;;;;5041812;28;19919;-67
2022/07/30 01:03:48;;;;;;;;;;;20.70;67.90;;;;;;5041954;28;20549;-67
2022/07/30 01:06:14;;;;;;;;;;;20.60;68.00;;;;;;5041798;28;20003;-67
2022/07/30 01:08:42;;;;;;;;;;;20.60;68.20;;;;;;5038811;28;19916;-67
2022/07/30 01:11:08;;;;;;;;;;;20.60;68.20;;;;;;5022984;28;19920;-67
2022/07/30 01:13:34;;;;;;;;;;;20.60;68.00;;;;;;5022806;28;20446;-67
2022/07/30 01:15:59;;;;;;;;;;;20.50;68.40;;;;;;5021799;28;19924;-67
2022/07/30 01:19:47;;;;;;;;;;;20.50;68.40;;;;;;5022218;28;20321;-67
2022/07/30 01:21:11;;;;;;;;;;;20.50;68.50;;;;;;5022508;28;19972;-67
2022/07/30 01:23:42;;;;;;;;;;;20.50;68.50;;;;;;5023570;28;19938;-67
2022/07/30 01:26:08;;;;;;;;;;;20.40;68.50;;;;;;5023810;28;19932;-67
2022/07/30 01:28:36;;;;;;;;;;;20.40;68.60;;;;;;5035669;28;20007;-67
2022/07/30 01:31:02;;;;;;;;;;;20.40;68.70;;;;;;5027971;28;19960;-67
2022/07/30 01:33:28;;;;;;;;;;;20.40;68.80;;;;;;5034863;28;19964;-67
2022/07/30 01:35:54;;;;;;;;;;;20.30;68.70;;;;;;5040590;28;19921;-67
2022/07/30 01:38:22;;;;;;;;;;;20.30;68.70;;;;;;5034638;28;19966;-67
2022/07/30 01:40:49;;;;;;;;;;;20.30;68.70;;;;;;5028956;28;19956;-67
2022/07/30 01:43:15;;;;;;;;;;;20.30;68.80;;;;;;5029039;28;19921;-67
2022/07/30 01:45:41;;;;;;;;;;;20.30;68.80;;;;;;5016478;28;19944;-67
2022/07/30 01:48:07;;;;;;;;;;;20.20;68.90;;;;;;5022438;28;20421;-67
2022/07/30 01:50:33;;;;;;;;;;;20.30;68.90;;;;;;5022295;28;19936;-67
2022/07/30 01:52:59;;;;;;;;;;;20.20;69.10;;;;;;5022217;28;20353;-67
2022/07/30 01:55:29;;;;;;;;;;;20.20;69.20;;;;;;5040487;28;19960;-67
2022/07/30 01:57:55;;;;;;;;;;;20.20;69.10;;;;;;5040357;28;19947;-67
2022/07/30 02:00:21;;;;;;;;;;;20.20;69.20;;;;;;5031648;28;19928;-67
2022/07/30 02:02:47;;;;;;;;;;;20.20;70.00;;;;;;5040771;28;19909;-67
2022/07/30 02:05:13;;;;;;;;;;;20.10;69.30;;;;;;5040572;28;19912;-67
2022/07/30 02:07:45;;;;;;;;;;;20.10;69.20;;;;;;5040417;28;20000;-67
2022/07/30 02:10:13;;;;;;;;;;;20.10;69.30;;;;;;5033377;28;20516;-67
2022/07/30 02:12:44;;;;;;;;;;;20.00;69.40;;;;;;5020948;28;20301;-67
2022/07/30 02:15:30;;;;;;;;;;;20.00;69.40;;;;;;5020618;28;19913;-67
2022/07/30 02:18:02;;;;;;;;;;;20.00;69.60;;;;;;5021357;28;20680;-67
2022/07/30 02:20:29;;;;;;;;;;;20.00;69.50;;;;;;5021206;28;19970;-67
2022/07/30 02:22:58;;;;;;;;;;;19.90;69.60;;;;;;5018326;28;19946;-67
2022/07/30 02:25:25;;;;;;;;;;;19.90;69.60;;;;;;5021170;28;19913;-67
2022/07/30 02:27:53;;;;;;;;;;;19.90;69.80;;;;;;5020312;28;19961;-67
2022/07/30 02:30:19;;;;;;;;;;;19.90;69.80;;;;;;5021346;28;19913;-67
2022/07/30 02:32:45;;;;;;;;;;;19.90;69.70;;;;;;5022953;28;19913;-67
2022/07/30 02:35:19;;;;;;;;;;;19.80;69.70;;;;;;5039499;28;20401;-67
2022/07/30 02:37:46;;;;;;;;;;;19.80;69.80;;;;;;5037722;28;19956;-67
2022/07/30 02:40:16;;;;;;;;;;;19.80;69.90;;;;;;5030508;28;19913;-67
2022/07/30 02:42:45;;;;;;;;;;;19.80;70.00;;;;;;5021812;28;19952;-67
2022/07/30 02:45:11;;;;;;;;;;;19.80;70.00;;;;;;5021766;28;20350;-67
2022/07/30 02:47:37;;;;;;;;;;;19.80;69.90;;;;;;5021742;28;19927;-67
2022/07/30 02:50:04;;;;;;;;;;;19.80;70.00;;;;;;5025557;28;19917;-67
2022/07/30 02:52:31;;;;;;;;;;;19.70;70.20;;;;;;5023929;28;19953;-67
2022/07/30 02:54:58;;;;;;;;;;;19.70;71.30;;;;;;5021359;28;20308;-67
2022/07/30 02:57:24;;;;;;;;;;;19.70;71.20;;;;;;5020878;28;20443;-67
2022/07/30 02:59:50;;;;;;;;;;;19.60;71.40;;;;;;5021507;28;19920;-67
2022/07/30 03:02:16;;;;;;;;;;;19.60;70.90;;;;;;5021615;28;19966;-67
2022/07/30 03:04:42;;;;;;;;;;;19.60;71.40;;;;;;5021382;28;19910;-67
2022/07/30 03:07:08;;;;;;;;;;;19.60;70.40;;;;;;5021264;28;19948;-67
2022/07/30 03:09:34;;;;;;;;;;;19.60;70.30;;;;;;5021702;28;19913;-67
2022/07/30 03:12:01;;;;;;;;;;;19.60;70.50;;;;;;5021221;28;19913;-67
2022/07/30 03:14:26;;;;;;;;;;;19.60;71.10;;;;;;5017939;28;20226;-67
2022/07/30 03:16:56;;;;;;;;;;;19.50;70.80;;;;;;5020872;28;19913;-67
2022/07/30 03:19:22;;;;;;;;;;;19.50;71.60;;;;;;5021229;28;19917;-67
2022/07/30 03:21:49;;;;;;;;;;;19.50;71.90;;;;;;5021525;28;20301;-67
2022/07/30 03:24:15;;;;;;;;;;;19.50;71.90;;;;;;5020998;28;20004;-67
2022/07/30 03:26:41;;;;;;;;;;;19.50;71.80;;;;;;5003066;28;20036;-67
2022/07/30 03:29:07;;;;;;;;;;;19.50;71.50;;;;;;5003514;28;19914;-67
2022/07/30 03:31:33;;;;;;;;;;;19.40;71.10;;;;;;5021505;28;19920;-67
2022/07/30 03:33:59;;;;;;;;;;;19.40;71.30;;;;;;5021313;28;19913;-67
2022/07/30 03:36:25;;;;;;;;;;;19.40;71.80;;;;;;5020566;28;19958;-67
2022/07/30 03:38:51;;;;;;;;;;;19.40;72.10;;;;;;5029728;28;19913;-67
2022/07/30 03:41:17;;;;;;;;;;;19.40;72.30;;;;;;5026623;28;19921;-67
2022/07/30 03:43:43;;;;;;;;;;;19.40;72.40;;;;;;5024257;28;20357;-67
2022/07/30 03:46:09;;;;;;;;;;;19.30;72.20;;;;;;5024269;28;20485;-67
2022/07/30 03:48:35;;;;;;;;;;;19.40;72.20;;;;;;5024149;28;19927;-67
2022/07/30 03:51:05;;;;;;;;;;;19.40;72.30;;;;;;5023976;28;19913;-67
2022/07/30 03:53:31;;;;;;;;;;;19.30;72.30;;;;;;5009433;28;19952;-67
2022/07/30 03:55:57;;;;;;;;;;;19.30;72.50;;;;;;5042466;28;20430;-67
2022/07/30 03:58:22;;;;;;;;;;;19.30;72.50;;;;;;5041960;28;20011;-67
2022/07/30 04:00:49;;;;;;;;;;;19.30;72.50;;;;;;5042346;28;20008;-67
2022/07/30 04:03:24;;;;;;;;;;;19.30;72.50;;;;;;5023660;28;20604;-67
2022/07/30 04:05:50;;;;;;;;;;;19.20;72.40;;;;;;5041908;28;19913;-67
2022/07/30 04:08:15;;;;;;;;;;;19.20;72.40;;;;;;5041718;28;19912;-67
2022/07/30 04:10:41;;;;;;;;;;;19.20;72.50;;;;;;5011138;28;19917;-67
2022/07/30 04:13:06;;;;;;;;;;;19.20;72.50;;;;;;5022807;28;19924;-67
2022/07/30 04:15:36;;;;;;;;;;;19.20;72.60;;;;;;5019128;28;19956;-67
2022/07/30 04:18:03;;;;;;;;;;;19.20;72.60;;;;;;5022665;28;19913;-67
2022/07/30 04:20:31;;;;;;;;;;;19.20;72.70;;;;;;5025736;28;20418;-67
2022/07/30 04:22:57;;;;;;;;;;;19.20;72.60;;;;;;5023203;28;20000;-67
2022/07/30 04:25:23;;;;;;;;;;;19.10;72.50;;;;;;5023636;28;19919;-67
2022/07/30 04:27:48;;;;;;;;;;;19.10;72.70;;;;;;5023002;28;20260;-67
2022/07/30 04:30:14;;;;;;;;;;;19.10;72.90;;;;;;5023362;28;20772;-67
2022/07/30 04:32:41;;;;;;;;;;;19.10;72.80;;;;;;5023158;28;19931;-67
2022/07/30 04:35:07;;;;;;;;;;;19.10;72.60;;;;;;5023110;28;19919;-67
2022/07/30 04:37:32;;;;;;;;;;;19.10;72.60;;;;;;5041013;28;19989;-67
2022/07/30 04:39:58;;;;;;;;;;;19.10;72.70;;;;;;5041361;28;19909;-67
2022/07/30 04:42:24;;;;;;;;;;;19.10;72.80;;;;;;5051420;28;19915;-67
2022/07/30 04:44:50;;;;;;;;;;;19.10;72.70;;;;;;5033930;28;19963;-67
2022/07/30 04:47:16;;;;;;;;;;;19.00;72.90;;;;;;5031444;28;19956;-67
2022/07/30 04:49:42;;;;;;;;;;;19.00;72.80;;;;;;5022606;28;19958;-67
2022/07/30 04:52:08;;;;;;;;;;;19.00;72.50;;;;;;5023009;28;19914;-67
2022/07/30 04:54:38;;;;;;;;;;;19.00;72.40;;;;;;5023776;28;19917;-67
2022/07/30 04:57:04;;;;;;;;;;;19.00;72.80;;;;;;5023170;28;19921;-67
2022/07/30 04:59:30;;;;;;;;;;;19.10;72.30;;;;;;5023190;28;19913;-67
2022/07/30 05:01:57;;;;;;;;;;;19.00;72.20;;;;;;5034073;28;19924;-67
2022/07/30 05:04:23;;;;;;;;;;;19.00;72.00;;;;;;5041176;28;20650;-67
2022/07/30 05:06:49;;;;;;;;;;;19.00;72.60;;;;;;5040519;28;20336;-67
2022/07/30 05:09:15;;;;;;;;;;;19.00;72.20;;;;;;5041241;28;19917;-67
2022/07/30 05:11:40;;;;;;;;;;;19.00;72.10;;;;;;5022698;28;20017;-67
2022/07/30 05:14:06;;;;;;;;;;;19.00;72.30;;;;;;5004334;28;20567;-67
2022/07/30 05:16:33;;;;;;;;;;;19.00;72.50;;;;;;5024393;28;19927;-66
2022/07/30 05:18:59;;;;;;;;;;;19.00;72.10;;;;;;5021198;28;19916;-66
2022/07/30 05:21:25;;;;;;;;;;;19.00;72.60;;;;;;5021340;28;19917;-66
2022/07/30 05:23:51;;;;;;;;;;;19.00;72.30;;;;;;5009597;28;19913;-66
2022/07/30 05:26:20;;;;;;;;;;;19.00;72.10;;;;;;5024293;28;19944;-66
2022/07/30 05:28:45;;;;;;;;;;;19.00;72.20;;;;;;5022063;28;19924;-66
2022/07/30 05:31:11;;;;;;;;;;;19.00;72.00;;;;;;5025341;28;19986;-67
2022/07/30 05:33:36;;;;;;;;;;;19.00;72.50;;;;;;5022295;28;20038;-67
2022/07/30 05:36:02;;;;;;;;;;;19.00;72.30;;;;;;5019910;28;20654;-67
2022/07/30 05:38:28;;;;;;;;;;;19.00;72.30;;;;;;5011852;28;19939;-67
2022/07/30 05:40:53;;;;;;;;;;;19.00;72.00;;;;;;5041774;28;19944;-67
2022/07/30 05:43:19;;;;;;;;;;;19.10;72.20;;;;;;5017566;28;20768;-67
2022/07/30 05:45:44;;;;;;;;;;;19.10;72.10;;;;;;5020807;28;19950;-67
2022/07/30 05:48:10;;;;;;;;;;;19.10;72.10;;;;;;5020544;28;20013;-68
2022/07/30 05:50:35;;;;;;;;;;;19.10;72.20;;;;;;5021587;28;19934;-67
2022/07/30 05:53:01;;;;;;;;;;;19.10;72.10;;;;;;5034158;28;19956;-67
2022/07/30 05:55:26;;;;;;;;;;;19.10;72.20;;;;;;5039111;28;20353;-67
2022/07/30 05:57:52;;;;;;;;;;;19.10;72.20;;;;;;5038498;28;19924;-67
2022/07/30 06:00:17;;;;;;;;;;;19.10;72.40;;;;;;5039774;28;19917;-67
2022/07/30 06:02:43;;;;;;;;;;;19.20;72.40;;;;;;5019574;28;20395;-67
2022/07/30 06:05:08;;;;;;;;;;;19.20;72.80;;;;;;5003138;28;20370;-67
2022/07/30 06:07:34;;;;;;;;;;;19.20;72.20;;;;;;5021039;28;19964;-67
2022/07/30 06:10:00;;;;;;;;;;;19.20;72.30;;;;;;5021103;28;19920;-67
2022/07/30 06:12:26;;;;;;;;;;;19.20;72.30;;;;;;5021329;28;19913;-67
2022/07/30 06:14:52;;;;;;;;;;;19.20;72.20;;;;;;5021416;28;20620;-67
2022/07/30 06:17:17;;;;;;;;;;;19.20;72.10;;;;;;5020787;28;19917;-67
2022/07/30 06:19:43;;;;;;;;;;;19.20;72.70;;;;;;5021365;28;19956;-67
2022/07/30 06:22:08;;;;;;;;;;;19.30;72.70;;;;;;5021065;28;19913;-67
2022/07/30 06:24:34;;;;;;;;;;;19.30;72.20;;;;;;5020964;28;19959;-67
2022/07/30 06:26:59;;;;;;;;;;;19.30;72.20;;;;;;5020197;28;19921;-67
2022/07/30 06:29:25;;;;;;;;;;;19.30;72.30;;;;;;5020840;28;20410;-67
2022/07/30 06:31:50;;;;;;;;;;;19.30;73.60;;;;;;5020906;28;20004;-67
2022/07/30 06:34:16;;;;;;;;;;;19.40;72.60;;;;;;5020392;28;20341;-67
2022/07/30 06:36:41;;;;;;;;;;;19.40;72.50;;;;;;5019847;28;20007;-67
2022/07/30 06:39:07;;;;;;;;;;;19.40;72.10;;;;;;5028941;28;19913;-67
2022/07/30 06:41:32;;;;;;;;;;;19.40;72.10;;;;;;5021006;28;19924;-67
2022/07/30 06:43:58;;;;;;;;;;;19.40;72.50;;;;;;5020413;28;20669;-67
2022/07/30 06:46:23;;;;;;;;;;;19.50;72.30;;;;;;5019704;28;19921;-67
2022/07/30 06:48:49;;;;;;;;;;;19.50;72.50;;;;;;5020036;28;19958;-67
2022/07/30 06:51:14;;;;;;;;;;;19.50;72.40;;;;;;5020461;28;20097;-67
2022/07/30 06:53:40;;;;;;;;;;;19.60;73.30;;;;;;5020870;28;20340;-67
2022/07/30 06:56:05;;;;;;;;;;;19.60;72.30;;;;;;5002948;28;19917;-68
2022/07/30 06:58:31;;;;;;;;;;;19.60;72.40;;;;;;5003012;28;19917;-67
2022/07/30 07:00:56;;;;;;;;;;;19.60;72.30;;;;;;5021053;28;19913;-67
2022/07/30 07:03:22;;;;;;;;;;;19.60;72.80;;;;;;5039073;28;20096;-67
2022/07/30 07:05:48;;;;;;;;;;;19.60;72.60;;;;;;5039338;28;19962;-67
2022/07/30 07:08:13;;;;;;;;;;;19.70;72.70;;;;;;5020521;28;19944;-67
2022/07/30 07:10:39;;;;;;;;;;;19.70;72.90;;;;;;5020785;28;19958;-67
2022/07/30 07:13:04;;;;;;;;;;;19.70;72.70;;;;;;5020968;28;20015;-67
2022/07/30 07:15:30;;;;;;;;;;;19.70;73.20;;;;;;5023801;28;20591;-67
2022/07/30 07:17:55;;;;;;;;;;;19.80;72.60;;;;;;5023712;28;19913;-68
2022/07/30 07:20:21;;;;;;;;;;;19.80;72.90;;;;;;5023916;28;20282;-67
2022/07/30 07:22:46;;;;;;;;;;;19.80;72.70;;;;;;5023991;28;20377;-67
2022/07/30 07:25:12;;;;;;;;;;;19.80;73.40;;;;;;5023776;28;20541;-67
2022/07/30 07:27:37;;;;;;;;;;;19.90;73.00;;;;;;5005894;28;19942;-67
2022/07/30 07:30:03;;;;;;;;;;;19.90;73.50;;;;;;5005985;28;19921;-67
2022/07/30 07:32:29;;;;;;;;;;;19.90;72.80;;;;;;5019996;28;19913;-67
2022/07/30 07:34:54;;;;;;;;;;;20.00;72.80;;;;;;5024220;28;20423;-68
2022/07/30 07:37:20;;;;;;;;;;;20.00;73.20;;;;;;5022301;28;19952;-67
2022/07/30 07:39:45;;;;;;;;;;;20.00;72.80;;;;;;5034670;28;19913;-67
2022/07/30 07:42:11;;;;;;;;;;;20.00;72.50;;;;;;5023945;28;19917;-67
2022/07/30 07:44:37;;;;;;;;;;;20.10;72.80;;;;;;5038461;28;19917;-67
2022/07/30 07:47:02;;;;;;;;;;;20.10;72.50;;;;;;5024002;28;19913;-67
2022/07/30 07:49:28;;;;;;;;;;;20.10;73.20;;;;;;5028295;28;19958;-67
2022/07/30 07:51:53;;;;;;;;;;;20.20;72.80;;;;;;5032319;28;19916;-67
2022/07/30 07:54:19;;;;;;;;;;;20.10;72.60;;;;;;5024704;28;20364;-67
2022/07/30 07:56:44;;;;;;;;;;;20.20;72.50;;;;;;5024158;28;19932;-68
2022/07/30 07:59:10;;;;;;;;;;;20.20;73.00;;;;;;5023980;28;19913;-67
2022/07/30 08:01:36;;;;;;;;;;;20.20;72.50;;;;;;5022425;28;20509;-67
2022/07/30 08:04:01;;;;;;;;;;;20.30;72.40;;;;;;5037851;28;19913;-68
2022/07/30 08:06:27;;;;;;;;;;;20.30;73.10;;;;;;5023630;28;19918;-67
2022/07/30 08:08:53;;;;;;;;;;;20.40;72.40;;;;;;5023196;28;19917;-67
2022/07/30 08:11:18;;;;;;;;;;;20.40;72.20;;;;;;5022900;28;19933;-68
2022/07/30 08:13:44;;;;;;;;;;;20.50;72.40;;;;;;5018314;28;19917;-67
2022/07/30 08:16:09;;;;;;;;;;;20.50;72.10;;;;;;5018421;28;20467;-68
2022/07/30 08:18:36;;;;;;;;;;;20.50;71.90;;;;;;5018185;28;19926;-68
2022/07/30 08:21:02;;;;;;;;;;;20.40;72.30;;;;;;5006048;28;19959;-67
2022/07/30 08:23:27;;;;;;;;;;;20.50;72.10;;;;;;5005506;28;19919;-68
2022/07/30 08:25:55;;;;;;;;;;;20.40;72.70;;;;;;5028552;28;19924;-67
2022/07/30 08:28:20;;;;;;;;;;;20.40;72.10;;;;;;5022298;28;20004;-68
2022/07/30 08:30:46;;;;;;;;;;;20.40;72.00;;;;;;5032127;28;20375;-67
2022/07/30 08:33:11;;;;;;;;;;;20.50;72.80;;;;;;5022159;28;19913;-68
2022/07/30 08:35:37;;;;;;;;;;;20.50;72.20;;;;;;5022572;28;20344;-67
2022/07/30 08:38:02;;;;;;;;;;;20.50;72.00;;;;;;5023023;28;20440;-67
2022/07/30 08:40:31;;;;;;;;;;;20.50;71.80;;;;;;5029708;28;20004;-68
2022/07/30 08:42:57;;;;;;;;;;;20.50;72.10;;;;;;5023478;28;20361;-68
2022/07/30 08:45:23;;;;;;;;;;;20.50;71.90;;;;;;5022890;28;19921;-67
2022/07/30 08:47:50;;;;;;;;;;;20.60;71.90;;;;;;5022237;28;19913;-68
2022/07/30 08:50:15;;;;;;;;;;;20.60;71.70;;;;;;5021750;28;19921;-67
2022/07/30 08:52:41;;;;;;;;;;;20.60;71.70;;;;;;5022759;28;19910;-68
2022/07/30 08:55:07;;;;;;;;;;;20.60;71.80;;;;;;5022812;28;19913;-68
2022/07/30 08:57:33;;;;;;;;;;;20.60;71.70;;;;;;5022508;28;20564;-68
2022/07/30 08:59:59;;;;;;;;;;;20.60;71.50;;;;;;5022535;28;19916;-68
2022/07/30 09:02:25;;;;;;;;;;;20.60;71.80;;;;;;5004258;28;20592;-68
2022/07/30 09:04:51;;;;;;;;;;;20.70;71.50;;;;;;5021585;28;19913;-67
2022/07/30 09:07:16;;;;;;;;;;;20.70;71.50;;;;;;5036063;28;19921;-67
2022/07/30 09:09:42;;;;;;;;;;;20.70;71.50;;;;;;5037092;28;19927;-68
2022/07/30 09:12:26;;;;;;;;;;;20.70;71.60;;;;;;5022296;28;19944;-68
2022/07/30 09:15:22;;;;;;;;;;;20.70;71.60;;;;;;5022574;28;19975;-67
2022/07/30 09:17:50;;;;;;;;;;;20.70;71.30;;;;;;5012418;28;19921;-67
2022/07/30 09:20:16;;;;;;;;;;;20.80;71.20;;;;;;5021825;28;19955;-68
2022/07/30 09:22:46;;;;;;;;;;;20.80;71.10;;;;;;5021394;28;19996;-68
2022/07/30 09:25:12;;;;;;;;;;;20.80;71.20;;;;;;5021952;28;19922;-67
2022/07/30 09:27:48;;;;;;;;;;;20.80;71.00;;;;;;5021623;28;19913;-67
2022/07/30 09:30:14;;;;;;;;;;;20.90;71.00;;;;;;5021807;28;19909;-67
2022/07/30 09:33:00;;;;;;;;;;;20.90;70.80;;;;;;5020154;28;19917;-67
2022/07/30 09:35:25;;;;;;;;;;;20.90;71.20;;;;;;5021219;28;19940;-68
2022/07/30 09:37:58;;;;;;;;;;;21.00;71.40;;;;;;5019874;28;20556;-67
2022/07/30 09:40:23;;;;;;;;;;;21.00;70.90;;;;;;5029229;28;20549;-68
2022/07/30 09:43:00;;;;;;;;;;;21.00;70.80;;;;;;5021102;28;19910;-68
2022/07/30 09:45:25;;;;;;;;;;;21.10;71.00;;;;;;5003876;28;19925;-68
2022/07/30 09:47:51;;;;;;;;;;;21.10;71.10;;;;;;5021274;28;19924;-68
2022/07/30 09:50:18;;;;;;;;;;;21.10;71.00;;;;;;5003829;28;19932;-67
2022/07/30 09:52:45;;;;;;;;;;;21.10;70.80;;;;;;5021361;28;20369;-67
2022/07/30 09:55:11;;;;;;;;;;;21.20;71.00;;;;;;5021198;28;19936;-67
2022/07/30 09:57:57;;;;;;;;;;;21.20;70.60;;;;;;5020524;28;19960;-67
2022/07/30 10:00:24;;;;;;;;;;;21.30;70.40;;;;;;5020270;28;19913;-68
2022/07/30 10:02:50;;;;;;;;;;;21.30;70.40;;;;;;5002663;28;19919;-67
2022/07/30 10:05:17;;;;;;;;;;;21.40;70.00;;;;;;5020119;28;19917;-68
2022/07/30 10:07:48;;;;;;;;;;;21.40;70.10;;;;;;5020216;28;19913;-67
2022/07/30 10:10:13;;;;;;;;;;;21.40;70.20;;;;;;5010252;28;20012;-68
2022/07/30 10:12:39;;;;;;;;;;;21.40;70.00;;;;;;5039246;28;20003;-68
2022/07/30 10:15:05;;;;;;;;;;;21.50;69.90;;;;;;5025598;28;19928;-68
2022/07/30 10:17:31;;;;;;;;;;;21.50;69.70;;;;;;5004269;28;19966;-68
2022/07/30 10:19:57;;;;;;;;;;;21.60;69.70;;;;;;5020921;28;20452;-68
2022/07/30 10:22:22;;;;;;;;;;;21.70;69.60;;;;;;5031241;28;19969;-67
2022/07/30 10:24:48;;;;;;;;;;;21.70;69.20;;;;;;5027401;28;19924;-67
2022/07/30 10:27:15;;;;;;;;;;;21.80;69.20;;;;;;5020879;28;19957;-68
2022/07/30 10:29:41;;;;;;;;;;;21.80;69.40;;;;;;5018756;28;20234;-68
2022/07/30 10:32:06;;;;;;;;;;;21.90;69.20;;;;;;5039530;28;19913;-68
2022/07/30 10:34:32;;;;;;;;;;;21.90;69.30;;;;;;5039387;28;19913;-68
2022/07/30 10:37:03;;;;;;;;;;;21.90;69.00;;;;;;5039293;28;19921;-68
2022/07/30 10:39:31;;;;;;;;;;;22.00;68.90;;;;;;5028293;28;19993;-68
2022/07/30 10:42:03;;;;;;;;;;;22.10;68.70;;;;;;5039227;28;20463;-68
2022/07/30 10:44:47;;;;;;;;;;;22.20;68.40;;;;;;5038914;28;20007;-68
2022/07/30 10:47:15;;;;;;;;;;;22.20;68.70;;;;;;5012633;28;19917;-68
2022/07/30 10:49:41;;;;;;;;;;;22.20;68.50;;;;;;5024968;28;19920;-68
2022/07/30 10:52:06;;;;;;;;;;;22.30;68.50;;;;;;5030090;28;20569;-67
2022/07/30 10:54:32;;;;;;;;;;;22.30;68.50;;;;;;5024375;28;19927;-67
2022/07/30 10:57:05;;;;;;;;;;;22.30;68.80;;;;;;5024029;28;19932;-67
2022/07/30 10:59:57;;;;;;;;;;;22.40;68.40;;;;;;5029790;28;19974;-67
2022/07/30 11:02:24;;;;;;;;;;;22.50;68.10;;;;;;5016321;28;19913;-67
2022/07/30 11:04:50;;;;;;;;;;;22.70;68.00;;;;;;5023904;28;19913;-67
2022/07/30 11:07:28;;;;;;;;;;;22.80;68.00;;;;;;5023985;28;19935;-67
2022/07/30 11:10:00;;;;;;;;;;;22.90;67.80;;;;;;5022634;28;20027;-67
2022/07/30 11:12:41;;;;;;;;;;;23.00;67.90;;;;;;5023785;28;20008;-68
2022/07/30 11:15:07;;;;;;;;;;;23.00;67.90;;;;;;5027097;28;19916;-68
2022/07/30 11:17:51;;;;;;;;;;;23.10;67.90;;;;;;5031142;28;20458;-67
2022/07/30 11:20:19;;;;;;;;;;;23.20;67.80;;;;;;5034348;28;20702;-67
2022/07/30 11:22:47;;;;;;;;;;;23.30;67.80;;;;;;5006058;28;20041;-67
2022/07/30 11:25:28;;;;;;;;;;;23.40;67.50;;;;;;5024194;28;19920;-67
2022/07/30 11:27:53;;;;;;;;;;;23.50;67.50;;;;;;5023778;28;19918;-67
2022/07/30 11:30:19;;;;;;;;;;;23.60;67.20;;;;;;5023155;28;19921;-67
2022/07/30 11:32:46;;;;;;;;;;;23.70;66.70;;;;;;5023808;28;20823;-67
2022/07/30 11:35:15;;;;;;;;;;;23.90;66.90;;;;;;5020737;28;20313;-67
2022/07/30 11:38:00;;;;;;;;;;;23.90;67.00;;;;;;5023501;28;19940;-68
2022/07/30 11:40:26;;;;;;;;;;;23.80;66.70;;;;;;5023392;28;20004;-68
2022/07/30 11:43:11;;;;;;;;;;;23.90;67.10;;;;;;5023299;28;19917;-68
2022/07/30 11:45:37;;;;;;;;;;;24.00;67.20;;;;;;5022653;28;19921;-67
2022/07/30 11:48:08;;;;;;;;;;;24.10;67.50;;;;;;5023203;28;19921;-67
2022/07/30 11:50:34;;;;;;;;;;;24.20;67.10;;;;;;5023657;28;20370;-67
2022/07/30 11:53:29;;;;;;;;;;;24.20;67.00;;;;;;5023165;28;19968;-68
2022/07/30 11:55:59;;;;;;;;;;;24.30;67.10;;;;;;5014054;28;19928;-67
2022/07/30 11:58:24;;;;;;;;;;;24.40;67.00;;;;;;5022866;28;19917;-68
2022/07/30 12:00:50;;;;;;;;;;;24.40;66.80;;;;;;5021808;28;19913;-67
2022/07/30 12:03:17;;;;;;;;;;;24.50;66.70;;;;;;5022591;28;20011;-67
2022/07/30 12:05:43;;;;;;;;;;;24.60;66.40;;;;;;5033113;28;20621;-67
2022/07/30 12:08:09;;;;;;;;;;;24.70;66.20;;;;;;5038556;28;19950;-67
2022/07/30 12:10:35;;;;;;;;;;;24.70;66.60;;;;;;5023470;28;19917;-67
2022/07/30 12:13:10;;;;;;;;;;;24.80;66.50;;;;;;5023495;28;20369;-67
2022/07/30 12:15:40;;;;;;;;;;;24.90;65.70;;;;;;5023277;28;19913;-67
2022/07/30 12:18:06;;;;;;;;;;;24.90;66.20;;;;;;5022708;28;20575;-67
2022/07/30 12:20:32;;;;;;;;;;;25.00;66.00;;;;;;5023688;28;20025;-67
2022/07/30 12:22:58;;;;;;;;;;;25.00;64.80;;;;;;5023633;28;20001;-67
2022/07/30 12:25:23;;;;;;;;;;;25.20;66.00;;;;;;5024413;28;19949;-68
2022/07/30 12:27:50;;;;;;;;;;;25.20;65.60;;;;;;5040950;27;19913;-67
2022/07/30 12:30:16;;;;;;;;;;;25.30;65.70;;;;;;5028542;28;19913;-67
2022/07/30 12:32:42;;;;;;;;;;;25.40;64.80;;;;;;5022949;28;20568;-67
2022/07/30 12:35:08;;;;;;;;;;;25.40;65.30;;;;;;5022653;28;19986;-67
2022/07/30 12:37:34;;;;;;;;;;;25.50;65.50;;;;;;5022368;28;19958;-67
2022/07/30 12:40:05;;;;;;;;;;;25.60;65.50;;;;;;5021931;28;19917;-67
2022/07/30 12:42:31;;;;;;;;;;;25.60;65.40;;;;;;5022618;28;19986;-68
2022/07/30 12:44:57;;;;;;;;;;;25.70;64.70;;;;;;5004540;28;20331;-67
2022/07/30 12:47:23;;;;;;;;;;;25.70;63.80;;;;;;5022778;28;20430;-67
2022/07/30 12:49:49;;;;;;;;;;;25.80;64.20;;;;;;5040608;28;19919;-67
2022/07/30 12:52:34;;;;;;;;;;;25.80;63.70;;;;;;5040810;28;19925;-67
2022/07/30 12:55:00;;;;;;;;;;;25.90;64.40;;;;;;5041348;28;20000;-67
2022/07/30 12:57:26;;;;;;;;;;;25.90;63.80;;;;;;5032102;28;19994;-67
2022/07/30 13:00:06;;;;;;;;;;;26.00;62.20;;;;;;5005249;28;19953;-67
2022/07/30 13:02:32;;;;;;;;;;;26.10;62.80;;;;;;5022438;28;19924;-67
2022/07/30 13:04:58;;;;;;;;;;;26.20;64.00;;;;;;5023272;28;19957;-67
2022/07/30 13:07:27;;;;;;;;;;;26.30;63.90;;;;;;5039457;28;20382;-67
2022/07/30 13:10:12;;;;;;;;;;;26.30;63.50;;;;;;5035854;28;19913;-67
2022/07/30 13:12:37;;;;;;;;;;;26.40;63.20;;;;;;5040052;28;19912;-67
2022/07/30 13:15:03;;;;;;;;;;;26.40;63.00;;;;;;5024650;28;19937;-67
2022/07/30 13:17:29;;;;;;;;;;;26.40;63.10;;;;;;5022290;28;19994;-67
2022/07/30 13:19:54;;;;;;;;;;;26.40;62.80;;;;;;5022858;28;19996;-67
2022/07/30 13:22:20;;;;;;;;;;;26.40;62.10;;;;;;5022326;28;20516;-67
2022/07/30 13:24:46;;;;;;;;;;;26.50;63.00;;;;;;5022823;28;19991;-68
2022/07/30 13:27:11;;;;;;;;;;;26.50;61.10;;;;;;5022373;28;19913;-67
2022/07/30 13:29:37;;;;;;;;;;;26.50;62.70;;;;;;5021267;28;20012;-70
2022/07/30 13:32:02;;;;;;;;;;;26.50;61.00;;;;;;5030494;28;19925;-70
2022/07/30 13:34:28;;;;;;;;;;;26.50;61.40;;;;;;5029756;28;19917;-70
2022/07/30 13:36:53;;;;;;;;;;;26.50;61.80;;;;;;5041093;28;19912;-71
2022/07/30 13:39:19;;;;;;;;;;;26.50;62.20;;;;;;5041164;28;19916;-71
2022/07/30 13:41:44;;;;;;;;;;;26.50;61.60;;;;;;5022916;28;20773;-70
2022/07/30 13:44:10;;;;;;;;;;;26.50;62.80;;;;;;5032011;28;19913;-70
2022/07/30 13:46:36;;;;;;;;;;;26.60;61.90;;;;;;5018532;28;20556;-71
2022/07/30 13:49:03;;;;;;;;;;;26.60;61.70;;;;;;5036025;28;19917;-72
2022/07/30 13:51:28;;;;;;;;;;;26.60;62.40;;;;;;5039219;28;20564;-70
2022/07/30 13:53:54;;;;;;;;;;;26.60;61.90;;;;;;5036945;28;20000;-68
2022/07/30 13:56:20;;;;;;;;;;;26.60;61.50;;;;;;5002914;28;19917;-70
2022/07/30 13:58:46;;;;;;;;;;;26.70;62.40;;;;;;5045369;28;19925;-73
2022/07/30 14:01:12;;;;;;;;;;;26.80;62.30;;;;;;5015868;28;19969;-74
2022/07/30 14:03:37;;;;;;;;;;;26.80;61.70;;;;;;5036446;28;20384;-73
2022/07/30 14:06:03;;;;;;;;;;;26.90;61.60;;;;;;5007039;28;19913;-70
2022/07/30 14:08:30;;;;;;;;;;;27.00;61.90;;;;;;5035689;28;20514;-72
2022/07/30 14:10:57;;;;;;;;;;;27.10;60.50;;;;;;5004571;28;19925;-72
2022/07/30 14:13:22;;;;;;;;;;;27.10;61.40;;;;;;5023908;28;19913;-72
2022/07/30 14:15:48;;;;;;;;;;;27.10;60.80;;;;;;5031186;28;19914;-73